createdAt,value
2022-10-19T00:01:29.022Z,103123.25
2022-10-19T00:04:03.550Z,103125.66
2022-10-19T00:06:37.908Z,103115.03
2022-10-19T00:09:09.845Z,103127.03
2022-10-19T00:11:42.516Z,103120.81
2022-10-19T00:14:14.593Z,103127.75
2022-10-19T00:16:44.812Z,103113.81
2022-10-19T00:19:19.364Z,103111.31
2022-10-19T00:24:20.583Z,103106.59
2022-10-19T00:26:50.525Z,103111.59
2022-10-19T00:29:20.636Z,103103.88
2022-10-19T00:31:52.633Z,103107.97
2022-10-19T00:34:24.964Z,103108.63
2022-10-19T00:36:54.673Z,103111.03
2022-10-19T00:39:24.291Z,103115.91
2022-10-19T00:41:54.142Z,103113.91
2022-10-19T00:44:53.816Z,103115.91
2022-10-19T00:47:27.356Z,103112.19
2022-10-19T00:50:01.941Z,103111.19
2022-10-19T00:52:32.574Z,103111.19
2022-10-19T00:55:02.923Z,103116.41
2022-10-19T00:57:35.423Z,103116.41
2022-10-19T01:00:07.751Z,103119.09
2022-10-19T01:02:37.729Z,103112.09
2022-10-19T01:05:11.650Z,103113.59
2022-10-19T01:07:41.593Z,103109.88
2022-10-19T01:10:12.433Z,103107.16
2022-10-19T01:12:58.484Z,103103.66
2022-10-19T01:15:35.606Z,103107.06
2022-10-19T01:18:14.910Z,103106.72
2022-10-19T01:21:13.983Z,103109.44
2022-10-19T01:24:16.077Z,103105.63
2022-10-19T01:27:20.327Z,103098.38
2022-10-19T01:30:16.027Z,103098.19
2022-10-19T01:32:56.411Z,103094.09
2022-10-19T01:35:31.763Z,103090.16
2022-10-19T01:38:10.373Z,103087.34
2022-10-19T01:40:48.007Z,103083.94
2022-10-19T01:43:26.159Z,103086.53
2022-10-19T01:46:03.782Z,103085.75
2022-10-19T01:48:37.590Z,103097.84
2022-10-19T01:51:09.086Z,103086.22
2022-10-19T01:53:46.433Z,103082.81
2022-10-19T01:56:17.337Z,103080.81
2022-10-19T01:58:49.455Z,103088.41
2022-10-19T02:01:25.304Z,103081.16
2022-10-19T02:03:56.556Z,103092.38
2022-10-19T02:06:26.653Z,103094.66
2022-10-19T02:08:57.392Z,103090.47
2022-10-19T02:11:27.735Z,103080.94
2022-10-19T02:14:03.361Z,103076.66
2022-10-19T02:16:39.545Z,103074.75
2022-10-19T02:19:11.729Z,103060.53
2022-10-19T02:21:41.554Z,103058.66
2022-10-19T02:24:11.159Z,103043.16
2022-10-19T02:26:41.869Z,103046.19
2022-10-19T02:29:14.347Z,103043.47
2022-10-19T02:31:47.380Z,103053.88
2022-10-19T02:34:17.365Z,103057.97
2022-10-19T02:36:47.394Z,103060.47
2022-10-19T02:39:17.077Z,103054.94
2022-10-19T02:41:53.447Z,103053.03
2022-10-19T02:44:30.427Z,103059.03
2022-10-19T02:47:08.093Z,103055.50
2022-10-19T02:49:39.561Z,103054.22
2022-10-19T02:52:10.560Z,103059.22
2022-10-19T02:54:42.509Z,103050.59
2022-10-19T02:57:19.168Z,103056.81
2022-10-19T02:59:49.401Z,103042.22
2022-10-19T03:02:23.217Z,103037.59
2022-10-19T03:04:53.615Z,103041.56
2022-10-19T03:07:24.856Z,103042.16
2022-10-19T03:09:54.587Z,103042.72
2022-10-19T03:12:24.227Z,103050.22
2022-10-19T03:14:54.093Z,103043.09
2022-10-19T03:17:26.901Z,103042.63
2022-10-19T03:19:56.657Z,103035.63
2022-10-19T03:22:26.350Z,103031.09
2022-10-19T03:24:56.117Z,103026.69
2022-10-19T03:27:25.796Z,103024.19
2022-10-19T03:29:55.423Z,103018.31
2022-10-19T03:32:27.601Z,103017.31
2022-10-19T03:34:57.467Z,103023.53
2022-10-19T03:37:27.144Z,103011.63
2022-10-19T03:39:57.017Z,103006.97
2022-10-19T03:42:26.706Z,103006.28
2022-10-19T03:44:56.332Z,103009.41
2022-10-19T03:47:28.755Z,103013.50
2022-10-19T03:49:58.448Z,103019.59
2022-10-19T03:52:28.159Z,103016.00
2022-10-19T03:54:57.774Z,103013.06
2022-10-19T03:57:27.514Z,103023.38
2022-10-19T03:59:57.133Z,103028.13
2022-10-19T04:02:29.323Z,103030.31
2022-10-19T04:04:58.997Z,103024.41
2022-10-19T04:07:28.635Z,103026.69
2022-10-19T04:09:58.234Z,103024.66
2022-10-19T04:12:27.997Z,103026.03
2022-10-19T04:14:57.993Z,103015.44
2022-10-19T04:17:30.769Z,103021.28
2022-10-19T04:20:00.464Z,103015.28
2022-10-19T04:22:30.013Z,103007.69
2022-10-19T04:24:59.642Z,103001.81
2022-10-19T04:27:29.225Z,102999.28
2022-10-19T04:29:58.766Z,102993.03
2022-10-19T04:32:31.104Z,102992.25
2022-10-19T04:35:00.731Z,103001.00
2022-10-19T04:37:30.833Z,103007.31
2022-10-19T04:40:00.649Z,103005.03
2022-10-19T04:42:30.561Z,103008.81
2022-10-19T04:45:00.310Z,103007.81
2022-10-19T04:47:33.485Z,103011.13
2022-10-19T04:50:03.607Z,103012.91
2022-10-19T04:52:35.260Z,103016.72
2022-10-19T04:55:05.059Z,103012.53
2022-10-19T04:57:35.109Z,103008.94
2022-10-19T05:00:05.541Z,103013.03
2022-10-19T05:02:37.949Z,103016.09
2022-10-19T05:05:08.628Z,103017.72
2022-10-19T05:07:38.332Z,103018.72
2022-10-19T05:10:09.374Z,103021.69
2022-10-19T05:12:39.351Z,103023.06
2022-10-19T05:15:10.444Z,103025.38
2022-10-19T05:17:42.805Z,103008.44
2022-10-19T05:20:13.749Z,103008.31
2022-10-19T05:22:43.753Z,103008.09
2022-10-19T05:25:13.387Z,103012.00
2022-10-19T05:27:45.832Z,103022.41
2022-10-19T05:30:15.456Z,103031.72
2022-10-19T05:32:50.235Z,103024.59
2022-10-19T05:35:22.432Z,103024.38
2022-10-19T05:37:57.226Z,103006.06
2022-10-19T05:40:26.860Z,103008.19
2022-10-19T05:42:56.436Z,103013.06
2022-10-19T05:45:26.079Z,103016.94
2022-10-19T05:47:58.301Z,103009.72
2022-10-19T05:50:27.985Z,103003.63
2022-10-19T05:52:57.678Z,103002.50
2022-10-19T05:55:27.526Z,102997.28
2022-10-19T05:57:57.147Z,102985.78
2022-10-19T06:00:26.838Z,102986.25
2022-10-19T06:02:59.352Z,102991.03
2022-10-19T06:05:29.114Z,102990.81
2022-10-19T06:07:58.872Z,102985.38
2022-10-19T06:10:28.587Z,102983.00
2022-10-19T06:12:58.321Z,102968.63
2022-10-19T06:15:28.041Z,102971.91
2022-10-19T06:18:02.492Z,102980.63
2022-10-19T06:20:32.032Z,102976.44
2022-10-19T06:23:01.600Z,102970.28
2022-10-19T06:25:32.129Z,102970.59
2022-10-19T06:28:02.229Z,102979.41
2022-10-19T06:30:31.982Z,102973.31
2022-10-19T06:35:54.633Z,102982.81
2022-10-19T06:38:25.083Z,102989.59
2022-10-19T06:40:55.140Z,102989.94
2022-10-19T06:43:25.616Z,102986.63
2022-10-19T06:45:55.416Z,102996.34
2022-10-19T06:48:28.072Z,102992.25
2022-10-19T06:51:01.586Z,102993.16
2022-10-19T06:53:34.318Z,103001.50
2022-10-19T06:56:06.672Z,102996.00
2022-10-19T06:58:38.481Z,102982.81
2022-10-19T07:01:10.458Z,102978.25
2022-10-19T07:03:43.774Z,102973.56
2022-10-19T07:06:15.136Z,102985.28
2022-10-19T07:11:22.732Z,102980.13
2022-10-19T07:13:53.089Z,102976.97
2022-10-19T07:16:23.302Z,102968.81
2022-10-19T07:18:56.396Z,102977.31
2022-10-19T07:21:26.310Z,102983.81
2022-10-19T07:23:57.465Z,102992.22
2022-10-19T07:26:30.773Z,102988.03
2022-10-19T07:29:02.977Z,102982.19
2022-10-19T07:31:33.263Z,102975.34
2022-10-19T07:34:08.545Z,102985.97
2022-10-19T07:36:42.340Z,102980.22
2022-10-19T07:39:17.080Z,102982.59
2022-10-19T07:41:50.715Z,102974.72
2022-10-19T07:44:23.904Z,102972.06
2022-10-19T07:46:53.934Z,102973.50
2022-10-19T07:49:26.194Z,102965.41
2022-10-19T07:51:56.449Z,102972.25
2022-10-19T07:54:27.503Z,102965.97
2022-10-19T07:56:57.269Z,102970.81
2022-10-19T07:59:26.886Z,102967.94
2022-10-19T08:01:57.268Z,102967.56
2022-10-19T08:07:19.158Z,102962.03
2022-10-19T08:09:53.197Z,102952.19
2022-10-19T08:12:23.500Z,102940.72
2022-10-19T08:14:53.250Z,102933.72
2022-10-19T08:17:22.846Z,102930.13
2022-10-19T08:19:55.656Z,102928.34
2022-10-19T08:22:25.206Z,102931.78
2022-10-19T08:24:55.442Z,102916.06
2022-10-19T08:27:25.714Z,102919.31
2022-10-19T08:29:55.566Z,102913.94
2022-10-19T08:32:25.238Z,102913.66
2022-10-19T08:35:01.076Z,102911.66
2022-10-19T08:37:44.370Z,102909.47
2022-10-19T08:40:22.166Z,102914.59
2022-10-19T08:42:59.968Z,102903.94
2022-10-19T08:45:46.307Z,102906.25
2022-10-19T08:48:33.198Z,102909.44
2022-10-19T08:51:07.951Z,102912.81
2022-10-19T08:53:43.050Z,102919.38
2022-10-19T08:56:49.483Z,102922.22
2022-10-19T08:59:30.209Z,102915.13
2022-10-19T09:02:06.301Z,102906.84
2022-10-19T09:04:39.905Z,102909.13
2022-10-19T09:07:30.387Z,102909.59
2022-10-19T09:10:04.610Z,102925.88
2022-10-19T09:12:46.329Z,102906.31
2022-10-19T09:15:20.892Z,102902.84
2022-10-19T09:17:50.706Z,102919.91
2022-10-19T09:20:23.869Z,102917.50
2022-10-19T09:23:06.807Z,102921.28
2022-10-19T09:25:42.121Z,102921.81
2022-10-19T09:28:27.310Z,102919.97
2022-10-19T09:31:02.503Z,102911.03
2022-10-19T09:33:37.710Z,102905.13
2022-10-19T09:36:18.204Z,102906.28
2022-10-19T09:38:55.794Z,102904.59
2022-10-19T09:41:28.139Z,102887.84
2022-10-19T09:43:58.889Z,102895.41
2022-10-19T09:46:51.882Z,102879.50
2022-10-19T09:49:22.095Z,102884.16
2022-10-19T09:51:54.609Z,102865.13
2022-10-19T09:54:37.270Z,102867.22
2022-10-19T09:57:07.568Z,102857.59
2022-10-19T09:59:39.198Z,102854.13
2022-10-19T10:02:19.427Z,102839.13
2022-10-19T10:04:50.321Z,102843.78
2022-10-19T10:07:21.166Z,102835.41
2022-10-19T10:09:55.886Z,102821.56
2022-10-19T10:12:26.043Z,102829.66
2022-10-19T10:14:57.467Z,102823.78
2022-10-19T10:17:33.182Z,102827.69
2022-10-19T10:20:20.281Z,102815.09
2022-10-19T10:22:58.070Z,102828.03
2022-10-19T10:25:34.163Z,102818.41
2022-10-19T10:28:07.053Z,102813.72
2022-10-19T10:30:40.009Z,102802.34
2022-10-19T10:33:15.959Z,102796.38
2022-10-19T10:35:56.187Z,102796.13
2022-10-19T10:38:29.553Z,102781.31
2022-10-19T10:41:07.939Z,102796.97
2022-10-19T10:43:41.807Z,102784.16
2022-10-19T10:46:18.824Z,102785.09
2022-10-19T10:48:59.774Z,102776.53
2022-10-19T10:51:37.478Z,102768.28
2022-10-19T10:54:19.286Z,102784.91
2022-10-19T10:57:06.556Z,102767.03
2022-10-19T10:59:45.502Z,102771.25
2022-10-19T11:02:27.606Z,102768.72
2022-10-19T11:05:01.856Z,102769.47
2022-10-19T11:07:33.797Z,102775.78
2022-10-19T11:10:10.035Z,102778.88
2022-10-19T11:12:46.973Z,102772.56
2022-10-19T11:15:22.525Z,102769.75
2022-10-19T11:18:02.811Z,102764.56
2022-10-19T11:20:35.148Z,102769.16
2022-10-19T11:23:16.410Z,102750.19
2022-10-19T11:26:01.410Z,102742.94
2022-10-19T11:28:50.052Z,102732.31
2022-10-19T11:31:25.292Z,102726.22
2022-10-19T11:34:03.479Z,102727.91
2022-10-19T11:36:49.695Z,102726.59
2022-10-19T11:39:37.598Z,102720.66
2022-10-19T11:42:17.887Z,102703.44
2022-10-19T11:45:04.239Z,102696.44
2022-10-19T11:47:52.250Z,102702.44
2022-10-19T11:50:32.564Z,102697.03
2022-10-19T11:53:12.424Z,102687.09
2022-10-19T11:55:48.701Z,102679.88
2022-10-19T11:58:35.402Z,102684.63
2022-10-19T12:01:19.519Z,102674.00
2022-10-19T12:04:31.446Z,102661.78
2022-10-19T12:07:14.979Z,102648.06
2022-10-19T12:09:53.461Z,102654.75
2022-10-19T12:12:32.847Z,102654.06
2022-10-19T12:15:23.739Z,102647.06
2022-10-19T12:18:00.352Z,102643.91
2022-10-19T12:20:35.608Z,102640.78
2022-10-19T12:23:17.160Z,102645.19
2022-10-19T12:25:48.117Z,102643.41
2022-10-19T12:28:24.313Z,102635.28
2022-10-19T12:30:55.634Z,102629.03
2022-10-19T12:33:33.000Z,102617.16
2022-10-19T12:36:15.604Z,102628.41
2022-10-19T12:39:00.169Z,102619.19
2022-10-19T12:41:35.584Z,102621.91
2022-10-19T12:44:18.180Z,102617.88
2022-10-19T12:46:53.811Z,102605.56
2022-10-19T12:49:47.604Z,102600.00
2022-10-19T12:52:20.492Z,102592.94
2022-10-19T12:54:50.259Z,102588.72
2022-10-19T12:57:34.610Z,102590.28
2022-10-19T13:00:09.561Z,102584.84
2022-10-19T13:02:41.823Z,102587.22
2022-10-19T13:05:25.774Z,102590.88
2022-10-19T13:07:55.513Z,102589.59
2022-10-19T13:10:27.414Z,102581.97
2022-10-19T13:12:58.491Z,102591.72
2022-10-19T13:15:52.712Z,102576.19
2022-10-19T13:18:37.129Z,102568.84
2022-10-19T13:21:09.842Z,102550.50
2022-10-19T13:23:45.125Z,102557.38
2022-10-19T13:26:34.675Z,102553.19
2022-10-19T13:29:04.443Z,102548.78
2022-10-19T13:31:37.624Z,102540.88
2022-10-19T13:34:13.392Z,102541.72
2022-10-19T13:37:03.062Z,102528.03
2022-10-19T13:39:34.148Z,102536.63
2022-10-19T13:42:04.103Z,102524.00
2022-10-19T13:44:37.563Z,102529.94
2022-10-19T13:47:31.573Z,102518.44
2022-10-19T13:50:06.578Z,102527.38
2022-10-19T13:53:06.235Z,102522.41
2022-10-19T13:56:04.659Z,102520.50
2022-10-19T13:59:08.905Z,102517.72
2022-10-19T14:01:53.980Z,102516.31
2022-10-19T14:04:37.742Z,102513.31
2022-10-19T14:07:15.451Z,102508.16
2022-10-19T14:10:03.406Z,102515.13
2022-10-19T14:12:36.713Z,102510.06
2022-10-19T14:15:23.331Z,102509.13
2022-10-19T14:17:53.076Z,102506.59
2022-10-19T14:20:31.312Z,102511.78
2022-10-19T14:23:01.428Z,102504.56
2022-10-19T14:25:34.629Z,102504.31
2022-10-19T14:28:08.960Z,102503.56
2022-10-19T14:30:39.885Z,102492.56
2022-10-19T14:33:11.812Z,102490.72
2022-10-19T14:35:45.213Z,102483.84
2022-10-19T14:38:23.280Z,102481.38
2022-10-19T14:40:56.215Z,102485.72
2022-10-19T14:43:28.207Z,102469.16
2022-10-19T14:46:13.297Z,102465.22
2022-10-19T14:48:45.624Z,102468.00
2022-10-19T14:51:34.833Z,102456.69
2022-10-19T14:54:09.195Z,102450.63
2022-10-19T14:56:45.997Z,102447.66
2022-10-19T14:59:26.269Z,102445.50
2022-10-19T15:01:58.350Z,102453.28
2022-10-19T15:04:30.834Z,102448.47
2022-10-19T15:07:02.112Z,102450.56
2022-10-19T15:09:47.381Z,102449.50
2022-10-19T15:12:25.005Z,102444.13
2022-10-19T15:14:54.958Z,102446.31
2022-10-19T15:17:28.661Z,102448.66
2022-10-19T15:20:00.611Z,102440.63
2022-10-19T15:22:42.964Z,102433.59
2022-10-19T15:25:33.489Z,102423.69
2022-10-19T15:28:37.483Z,102420.94
2022-10-19T15:31:18.126Z,102417.78
2022-10-19T15:33:51.874Z,102407.81
2022-10-19T15:36:22.710Z,102408.66
2022-10-19T15:39:18.481Z,102405.09
2022-10-19T15:41:53.616Z,102395.19
2022-10-19T15:44:42.879Z,102395.59
2022-10-19T15:47:24.735Z,102389.44
2022-10-19T15:50:00.049Z,102384.84
2022-10-19T15:52:32.640Z,102378.63
2022-10-19T15:55:04.174Z,102381.19
2022-10-19T15:57:38.338Z,102380.19
2022-10-19T16:00:16.830Z,102366.69
2022-10-19T16:02:46.667Z,102364.44
2022-10-19T16:05:16.245Z,102364.63
2022-10-19T16:07:45.881Z,102364.44
2022-10-19T16:10:19.521Z,102368.28
2022-10-19T16:12:49.181Z,102358.44
2022-10-19T16:15:24.978Z,102352.28
2022-10-19T16:17:57.079Z,102345.09
2022-10-19T16:20:28.199Z,102337.94
2022-10-19T16:22:58.505Z,102334.94
2022-10-19T16:25:28.666Z,102333.22
2022-10-19T16:27:58.702Z,102329.69
2022-10-19T16:30:30.971Z,102319.59
2022-10-19T16:33:00.704Z,102316.91
2022-10-19T16:35:30.358Z,102313.44
2022-10-19T16:38:00.120Z,102308.69
2022-10-19T16:40:30.226Z,102323.38
2022-10-19T16:43:00.720Z,102319.63
2022-10-19T16:45:33.576Z,102321.22
2022-10-19T16:48:03.388Z,102318.63
2022-10-19T16:50:33.440Z,102308.16
2022-10-19T16:53:10.359Z,102308.91
2022-10-19T16:55:40.753Z,102308.53
2022-10-19T16:58:10.650Z,102296.09
2022-10-19T17:00:42.841Z,102291.94
2022-10-19T17:03:13.658Z,102280.38
2022-10-19T17:05:43.724Z,102281.22
2022-10-19T17:08:13.373Z,102276.75
2022-10-19T17:10:43.477Z,102277.50
2022-10-19T17:13:13.075Z,102274.97
2022-10-19T17:15:45.191Z,102283.41
2022-10-19T17:18:14.940Z,102283.41
2022-10-19T17:20:44.689Z,102286.03
2022-10-19T17:23:14.431Z,102290.34
2022-10-19T17:25:49.905Z,102299.94
2022-10-19T17:28:21.027Z,102299.00
2022-10-19T17:30:55.405Z,102304.06
2022-10-19T17:33:29.793Z,102296.06
2022-10-19T17:36:04.913Z,102304.63
2022-10-19T17:38:34.725Z,102311.47
2022-10-19T17:41:06.481Z,102309.78
2022-10-19T17:43:36.629Z,102304.38
2022-10-19T17:46:11.006Z,102297.22
2022-10-19T17:48:45.020Z,102312.16
2022-10-19T17:51:17.497Z,102309.47
2022-10-19T17:53:49.149Z,102305.63
2022-10-19T17:56:21.158Z,102323.78
2022-10-19T17:58:52.114Z,102314.34
2022-10-19T18:01:25.356Z,102309.84
2022-10-19T18:03:55.271Z,102296.50
2022-10-19T18:06:29.323Z,102293.81
2022-10-19T18:08:59.901Z,102281.47
2022-10-19T18:11:30.975Z,102291.81
2022-10-19T18:14:02.610Z,102275.78
2022-10-19T18:16:38.160Z,102291.53
2022-10-19T18:19:09.241Z,102285.19
2022-10-19T18:21:41.400Z,102302.66
2022-10-19T18:24:16.629Z,102282.81
2022-10-19T18:26:46.614Z,102275.25
2022-10-19T18:29:19.151Z,102273.53
2022-10-19T18:31:52.640Z,102268.09
2022-10-19T18:34:23.843Z,102260.84
2022-10-19T18:36:53.700Z,102256.44
2022-10-19T18:39:23.823Z,102251.94
2022-10-19T18:41:55.106Z,102252.75
2022-10-19T18:44:27.906Z,102250.84
2022-10-19T18:47:02.163Z,102243.69
2022-10-19T18:49:32.569Z,102246.16
2022-10-19T18:52:02.929Z,102232.75
2022-10-19T18:54:32.864Z,102223.41
2022-10-19T18:57:02.496Z,102212.78
2022-10-19T18:59:32.995Z,102206.50
2022-10-19T19:02:07.836Z,102208.00
2022-10-19T19:04:43.614Z,102205.41
2022-10-19T19:07:13.224Z,102190.34
2022-10-19T19:09:43.885Z,102191.34
2022-10-19T19:12:14.662Z,102185.75
2022-10-19T19:14:45.317Z,102184.81
2022-10-19T19:17:17.666Z,102177.72
2022-10-19T19:19:47.700Z,102183.81
2022-10-19T19:22:18.197Z,102180.19
2022-10-19T19:24:48.508Z,102178.38
2022-10-19T19:27:18.298Z,102169.69
2022-10-19T19:29:48.087Z,102154.69
2022-10-19T19:32:22.600Z,102153.03
2022-10-19T19:34:54.704Z,102154.47
2022-10-19T19:37:24.841Z,102154.56
2022-10-19T19:39:54.581Z,102144.59
2022-10-19T19:42:27.767Z,102149.16
2022-10-19T19:44:57.746Z,102144.59
2022-10-19T19:47:30.070Z,102134.00
2022-10-19T19:50:04.107Z,102139.06
2022-10-19T19:52:38.097Z,102137.22
2022-10-19T19:55:10.331Z,102136.28
2022-10-19T19:57:40.073Z,102138.78
2022-10-19T20:00:14.373Z,102140.56
2022-10-19T20:02:47.455Z,102138.78
2022-10-19T20:05:17.255Z,102127.00
2022-10-19T20:07:46.792Z,102135.69
2022-10-19T20:10:17.184Z,102144.22
2022-10-19T20:12:47.415Z,102138.84
2022-10-19T20:15:19.168Z,102133.56
2022-10-19T20:17:51.410Z,102125.50
2022-10-19T20:20:22.289Z,102122.91
2022-10-19T20:22:52.511Z,102115.06
2022-10-19T20:25:22.271Z,102121.09
2022-10-19T20:27:51.787Z,102122.59
2022-10-19T20:30:21.639Z,102121.88
2022-10-19T20:32:56.331Z,102130.66
2022-10-19T20:35:25.971Z,102122.91
2022-10-19T20:37:58.289Z,102116.69
2022-10-19T20:40:30.696Z,102119.13
2022-10-19T20:43:06.060Z,102094.84
2022-10-19T20:45:36.907Z,102117.34
2022-10-19T20:48:11.766Z,102100.03
2022-10-19T20:50:41.411Z,102094.91
2022-10-19T20:53:12.699Z,102093.78
2022-10-19T20:55:42.779Z,102090.22
2022-10-19T20:58:12.599Z,102089.44
2022-10-19T21:00:42.949Z,102087.59
2022-10-19T21:03:15.166Z,102089.22
2022-10-19T21:05:44.789Z,102077.84
2022-10-19T21:08:16.413Z,102077.13
2022-10-19T21:10:46.011Z,102073.56
2022-10-19T21:13:17.061Z,102076.22
2022-10-19T21:15:46.760Z,102072.44
2022-10-19T21:18:20.419Z,102072.31
2022-10-19T21:20:52.217Z,102074.75
2022-10-19T21:23:24.737Z,102074.09
2022-10-19T21:25:58.463Z,102067.72
2022-10-19T21:28:28.638Z,102073.63
2022-10-19T21:30:58.350Z,102062.72
2022-10-19T21:33:30.874Z,102055.41
2022-10-19T21:36:05.057Z,102057.09
2022-10-19T21:38:35.445Z,102056.00
2022-10-19T21:41:06.589Z,102044.72
2022-10-19T21:43:36.808Z,102040.19
2022-10-19T21:46:08.364Z,102033.91
2022-10-19T21:48:40.780Z,102034.84
2022-10-19T21:51:25.846Z,102037.47
2022-10-19T21:53:55.541Z,102043.41
2022-10-19T21:56:25.571Z,102038.00
2022-10-19T21:58:58.177Z,102030.16
2022-10-19T22:01:37.309Z,102020.50
2022-10-19T22:04:15.849Z,102010.22
2022-10-19T22:06:45.915Z,102005.78
2022-10-19T22:09:17.953Z,101996.97
2022-10-19T22:11:48.432Z,102003.22
2022-10-19T22:14:18.859Z,101996.84
2022-10-19T22:16:48.542Z,101995.97
2022-10-19T22:19:20.734Z,101988.00
2022-10-19T22:21:50.456Z,101994.06
2022-10-19T22:24:20.258Z,101987.09
2022-10-19T22:26:51.842Z,101979.13
2022-10-19T22:29:22.096Z,101985.13
2022-10-19T22:31:51.712Z,101978.00
2022-10-19T22:34:23.907Z,101973.72
2022-10-19T22:36:53.498Z,101976.94
2022-10-19T22:39:26.896Z,101974.19
2022-10-19T22:42:33.328Z,101967.06
2022-10-19T22:45:03.302Z,101951.50
2022-10-19T22:47:33.188Z,101953.16
2022-10-19T22:50:07.511Z,101955.06
2022-10-19T22:52:49.882Z,101944.59
2022-10-19T23:00:39.873Z,101921.06
2022-10-19T23:03:09.463Z,101915.91
2022-10-19T23:05:39.083Z,101919.34
2022-10-19T23:08:09.028Z,101925.47
2022-10-19T23:10:38.688Z,101932.25
2022-10-19T23:13:11.327Z,101926.47
2022-10-19T23:15:43.802Z,101923.56
2022-10-19T23:18:13.891Z,101926.34
2022-10-19T23:20:43.554Z,101928.69
2022-10-19T23:23:13.201Z,101925.34
2022-10-19T23:25:42.901Z,101922.50
2022-10-19T23:28:15.266Z,101913.53
2022-10-19T23:30:44.939Z,101911.09
2022-10-19T23:33:14.808Z,101911.97
2022-10-19T23:35:44.910Z,101900.81
2022-10-19T23:38:14.623Z,101896.22
2022-10-19T23:40:46.078Z,101898.72
2022-10-19T23:43:18.269Z,101900.50
2022-10-19T23:45:48.582Z,101891.00
2022-10-19T23:48:21.168Z,101892.72
2022-10-19T23:51:03.326Z,101879.84
2022-10-19T23:53:38.430Z,101879.59
2022-10-19T23:56:23.854Z,101869.78
2022-10-19T23:58:59.388Z,101869.84
